Bowen, Argentina
Current Conditions -  °F | °C
As of 5:00 AM on Thursday 18 Dec 2014 (Local Time) from SAME Reporting Station
Thunderstorm Thunderstorm  
Wind Chill: 70°   Ceiling: Unl
Heat Index: 70°   Visibility: 6mi
Dew Point: 45°   Wind: 5mph
Humidity: 40%   Direction: 180°S
Pressure: 29.94"   Gusts: NA
Location:  35°S, 67.52°W
Report Text: SAME 180800Z 18004KT 9999 VCTS SCT040FEW045CB 21/07 Q1014
Loading
Personal Weather Stations






























Interactive Weather Map New forecast layout! Learn more

10-Day Weather Forecast

Advertisements
Track Severe Weather on mobile